Time;durP1;ratioP1;P1;durP2;ratioP2;P2;SDS_P1;SDS_P2;PMS_P1;PMS_P2;Temp;Humidity;BMP_temperature;BMP_pressure;BME280_temperature;BME280_humidity;BME280_pressure;Samples;Min_cycle;Max_cycle;Signal;HPM_P1;HPM_P2
2024/01/25 00:01:17;;;;;;;50.37;9.60;;;;;8.70;102383.00;;;;9843426;29;20224;-79
2024/01/25 00:06:20;;;;;;;44.67;9.07;;;;;8.60;102373.00;;;;9844470;29;20232;-78
2024/01/25 00:11:22;;;;;;;55.30;9.37;;;;;8.50;102383.00;;;;9857786;29;20307;-79
2024/01/25 00:16:24;;;;;;;48.83;8.83;;;;;8.40;102373.00;;;;9844154;29;20255;-79
2024/01/25 00:21:26;;;;;;;51.90;9.03;;;;;8.20;102385.00;;;;9844567;29;20815;-79
2024/01/25 00:26:28;;;;;;;45.53;8.73;;;;;8.10;102369.00;;;;9838656;29;20247;-79
2024/01/25 00:31:30;;;;;;;54.63;9.03;;;;;8.10;102370.00;;;;9858369;29;20326;-79
2024/01/25 00:36:32;;;;;;;55.80;11.13;;;;;8.00;102386.00;;;;9866257;29;20653;-79
2024/01/25 00:41:34;;;;;;;52.07;8.00;;;;;7.90;102391.00;;;;9837802;29;20240;-79
2024/01/25 00:46:36;;;;;;;51.67;8.90;;;;;7.80;102398.00;;;;9845118;29;20323;-79
2024/01/25 00:51:46;;;;;;;49.30;9.20;;;;;7.80;102383.00;;;;9832441;29;20237;-79
2024/01/25 00:56:50;;;;;;;54.93;9.77;;;;;7.70;102382.00;;;;9865927;29;20713;-79
2024/01/25 01:01:53;;;;;;;38.87;8.50;;;;;7.70;102416.00;;;;9853298;29;20232;-79
2024/01/25 01:06:55;;;;;;;47.47;8.70;;;;;7.60;102397.00;;;;9823431;29;20220;-79
2024/01/25 01:11:58;;;;;;;43.60;8.47;;;;;7.50;102392.00;;;;9854753;29;20690;-79
2024/01/25 01:17:01;;;;;;;54.27;8.60;;;;;7.50;102398.00;;;;9838867;29;20230;-79
2024/01/25 01:22:03;;;;;;;62.67;9.57;;;;;7.40;102409.00;;;;9840762;29;20289;-79
2024/01/25 01:27:05;;;;;;;53.40;9.80;;;;;7.30;102408.00;;;;9839596;29;20303;-79
2024/01/25 01:32:07;;;;;;;45.20;8.37;;;;;7.10;102420.00;;;;9855163;29;20940;-79
2024/01/25 01:37:09;;;;;;;50.73;9.30;;;;;7.00;102425.00;;;;9840405;29;22065;-79
2024/01/25 01:42:11;;;;;;;48.80;9.70;;;;;6.90;102418.00;;;;9834412;29;20281;-79
2024/01/25 01:47:13;;;;;;;57.40;9.50;;;;;6.80;102426.00;;;;9858108;29;20630;-79
2024/01/25 01:52:17;;;;;;;51.40;9.27;;;;;6.60;102416.00;;;;9824269;29;20232;-79
2024/01/25 01:57:20;;;;;;;41.93;8.93;;;;;6.50;102416.00;;;;9853083;29;20236;-79
2024/01/25 02:02:23;;;;;;;63.37;9.03;;;;;6.40;102420.00;;;;9853052;29;20292;-80
2024/01/25 02:07:26;;;;;;;50.00;9.53;;;;;6.30;102422.00;;;;9864794;29;20911;-79
2024/01/25 02:12:28;;;;;;;53.97;8.70;;;;;6.20;102406.00;;;;9837958;29;20240;-80
2024/01/25 02:17:30;;;;;;;46.27;8.53;;;;;6.20;102413.00;;;;9833976;29;20232;-80
2024/01/25 02:22:33;;;;;;;43.57;8.87;;;;;6.20;102415.00;;;;9838694;29;20229;-80
2024/01/25 02:27:38;;;;;;;52.23;10.90;;;;;6.20;102421.00;;;;9848907;29;20232;-79
2024/01/25 02:32:43;;;;;;;45.93;9.10;;;;;6.20;102416.00;;;;9853432;29;20319;-79
2024/01/25 02:37:45;;;;;;;37.13;8.43;;;;;6.20;102411.00;;;;9865250;29;20256;-80
2024/01/25 02:42:46;;;;;;;61.23;9.00;;;;;6.20;102418.00;;;;9811700;29;20309;-80
2024/01/25 02:47:49;;;;;;;56.53;8.47;;;;;6.20;102417.00;;;;9822912;29;20258;-79
2024/01/25 02:52:51;;;;;;;43.77;7.77;;;;;6.00;102410.00;;;;9835635;29;20232;-80
2024/01/25 02:57:53;;;;;;;46.60;8.57;;;;;6.00;102423.00;;;;9833527;29;20768;-80
2024/01/25 03:02:55;;;;;;;42.77;8.33;;;;;5.90;102423.00;;;;9830631;29;20285;-79
2024/01/25 03:07:57;;;;;;;50.40;7.33;;;;;5.80;102429.00;;;;9834885;29;20228;-78
2024/01/25 03:12:58;;;;;;;50.37;7.90;;;;;5.60;102426.00;;;;9831037;29;20243;-80
2024/01/25 03:18:01;;;;;;;36.80;8.07;;;;;5.50;102420.00;;;;9835419;29;20230;-78
2024/01/25 03:23:03;;;;;;;46.50;8.57;;;;;5.50;102417.00;;;;9819895;29;20232;-78
2024/01/25 03:28:06;;;;;;;49.00;8.57;;;;;5.60;102424.00;;;;9841969;29;20232;-78
2024/01/25 03:33:08;;;;;;;50.07;8.17;;;;;5.60;102428.00;;;;9830362;29;20447;-77
2024/01/25 03:38:10;;;;;;;48.53;8.43;;;;;5.50;102436.00;;;;9816202;29;20336;-78
2024/01/25 03:43:12;;;;;;;52.20;7.90;;;;;5.40;102447.00;;;;9839671;29;20289;-79
2024/01/25 03:48:23;;;;;;;40.47;8.80;;;;;5.30;102438.00;;;;9829791;29;20228;-77
2024/01/25 03:53:25;;;;;;;43.77;8.33;;;;;5.20;102436.00;;;;9828670;29;20241;-78
2024/01/25 03:58:26;;;;;;;44.17;7.70;;;;;5.10;102440.00;;;;9831099;29;20247;-78
2024/01/25 04:03:28;;;;;;;47.40;7.97;;;;;5.10;102442.00;;;;9854363;29;20231;-77
2024/01/25 04:08:31;;;;;;;43.23;8.40;;;;;5.10;102429.00;;;;9830474;29;20264;-80
2024/01/25 04:13:32;;;;;;;51.93;7.60;;;;;5.00;102437.00;;;;9848478;29;20315;-78
2024/01/25 04:18:34;;;;;;;53.83;9.10;;;;;4.90;102447.00;;;;9834614;29;20235;-78
2024/01/25 04:23:36;;;;;;;51.13;9.77;;;;;4.80;102432.00;;;;9837530;29;20236;-78
2024/01/25 04:28:38;;;;;;;36.57;7.37;;;;;4.70;102434.00;;;;9819440;29;20264;-78
2024/01/25 04:33:40;;;;;;;41.63;7.47;;;;;4.70;102434.00;;;;9854399;29;20243;-78
2024/01/25 04:38:48;;;;;;;47.53;7.97;;;;;4.60;102437.00;;;;9837342;29;20247;-79
2024/01/25 04:43:51;;;;;;;45.23;7.43;;;;;4.60;102438.00;;;;9820381;29;20290;-78
2024/01/25 04:48:53;;;;;;;55.53;11.03;;;;;4.60;102437.00;;;;9841183;29;20596;-78
2024/01/25 04:53:55;;;;;;;42.43;7.93;;;;;4.70;102432.00;;;;9838796;29;20709;-78
2024/01/25 04:58:57;;;;;;;44.77;8.20;;;;;4.80;102426.00;;;;9847977;29;20285;-79
2024/01/25 05:03:58;;;;;;;56.47;8.57;;;;;4.80;102421.00;;;;9841055;29;20232;-79
2024/01/25 05:09:01;;;;;;;56.30;9.43;;;;;4.80;102423.00;;;;9844427;29;20307;-79
2024/01/25 05:14:02;;;;;;;45.53;9.57;;;;;4.80;102417.00;;;;9835682;29;20234;-79
2024/01/25 05:19:04;;;;;;;52.73;8.80;;;;;4.80;102443.00;;;;9835523;29;20350;-79
2024/01/25 05:24:07;;;;;;;44.33;8.40;;;;;4.90;102443.00;;;;9833902;29;20326;-81
2024/01/25 05:29:09;;;;;;;53.83;8.97;;;;;4.90;102431.00;;;;9839697;29;20293;-80
2024/01/25 05:34:11;;;;;;;42.87;7.73;;;;;4.90;102433.00;;;;9810845;29;20232;-80
2024/01/25 05:39:13;;;;;;;49.27;7.63;;;;;4.80;102430.00;;;;9837141;29;20718;-80
2024/01/25 05:44:15;;;;;;;47.90;8.50;;;;;4.70;102430.00;;;;9852288;29;20607;-81
2024/01/25 05:49:17;;;;;;;44.83;9.23;;;;;4.50;102443.00;;;;9828895;29;20761;-82
2024/01/25 05:54:19;;;;;;;42.17;8.30;;;;;4.50;102444.00;;;;9843591;29;20217;-81
2024/01/25 05:59:21;;;;;;;42.13;8.27;;;;;4.50;102449.00;;;;9831318;29;20224;-80
2024/01/25 06:04:22;;;;;;;55.43;9.20;;;;;4.50;102449.00;;;;9839726;29;20264;-81
2024/01/25 06:09:25;;;;;;;52.20;9.57;;;;;4.60;102454.00;;;;9840536;29;20259;-80
2024/01/25 06:14:26;;;;;;;59.70;10.00;;;;;4.70;102453.00;;;;9823677;29;20239;-80
2024/01/25 06:19:28;;;;;;;56.70;10.40;;;;;4.90;102452.00;;;;9836107;29;20245;-80
2024/01/25 06:24:30;;;;;;;52.60;9.73;;;;;4.90;102445.00;;;;9847938;29;20639;-80
2024/01/25 06:29:33;;;;;;;65.50;11.93;;;;;4.90;102457.00;;;;9835114;29;20235;-81
2024/01/25 06:34:34;;;;;;;54.27;8.73;;;;;4.90;102464.00;;;;9816804;29;20247;-79
2024/01/25 06:39:36;;;;;;;54.97;9.27;;;;;5.00;102449.00;;;;9832669;29;20267;-78
2024/01/25 06:44:38;;;;;;;53.13;8.43;;;;;5.00;102445.00;;;;9846169;29;20304;-78
2024/01/25 06:49:40;;;;;;;56.77;9.73;;;;;5.00;102455.00;;;;9839377;29;21001;-79
2024/01/25 06:54:42;;;;;;;36.83;8.50;;;;;5.00;102468.00;;;;9846060;29;20228;-78
2024/01/25 06:59:44;;;;;;;50.30;7.77;;;;;5.00;102447.00;;;;9844305;29;20696;-78
2024/01/25 07:04:47;;;;;;;54.53;8.60;;;;;5.00;102456.00;;;;9830947;29;20320;-78
2024/01/25 07:09:49;;;;;;;61.13;9.70;;;;;5.00;102453.00;;;;9817616;29;20278;-79
2024/01/25 07:14:51;;;;;;;53.50;10.27;;;;;5.10;102455.00;;;;9862819;29;20922;-79
2024/01/25 07:19:53;;;;;;;56.93;9.47;;;;;5.20;102459.00;;;;9847935;29;20307;-78
2024/01/25 07:24:55;;;;;;;52.07;12.27;;;;;5.20;102445.00;;;;9850048;29;20936;-79
2024/01/25 07:29:57;;;;;;;50.87;9.10;;;;;5.20;102440.00;;;;9844834;29;20224;-78
2024/01/25 07:34:58;;;;;;;48.70;10.63;;;;;5.30;102449.00;;;;9818626;29;20234;-75
2024/01/25 07:40:03;;;;;;;55.77;11.83;;;;;5.40;102447.00;;;;9836288;29;20274;-80
2024/01/25 07:45:06;;;;;;;71.00;13.63;;;;;5.40;102440.00;;;;9856466;29;20240;-79
2024/01/25 07:50:08;;;;;;;55.97;10.70;;;;;5.50;102448.00;;;;9874484;29;20319;-76
2024/01/25 07:55:11;;;;;;;52.97;11.93;;;;;5.70;102450.00;;;;9836125;29;20228;-78
2024/01/25 08:00:13;;;;;;;57.80;13.00;;;;;5.60;102450.00;;;;9840177;29;20236;-76
2024/01/25 08:05:15;;;;;;;51.27;11.80;;;;;5.60;102448.00;;;;9847381;29;20937;-76
2024/01/25 08:10:17;;;;;;;53.87;12.67;;;;;5.60;102446.00;;;;9837691;29;20634;-78
2024/01/25 08:15:19;;;;;;;46.73;13.93;;;;;5.60;102442.00;;;;9848902;29;20232;-76
2024/01/25 08:20:21;;;;;;;66.33;14.77;;;;;5.70;102447.00;;;;9848025;29;20715;-75
2024/01/25 08:25:23;;;;;;;54.40;14.80;;;;;5.90;102453.00;;;;9820477;29;20233;-76
2024/01/25 08:30:26;;;;;;;44.93;14.60;;;;;6.10;102443.00;;;;9852986;29;20236;-77
2024/01/25 08:35:27;;;;;;;38.10;13.70;;;;;6.30;102431.00;;;;9824136;29;20924;-77
2024/01/25 08:40:29;;;;;;;28.53;12.97;;;;;6.50;102443.00;;;;9828204;29;20237;-76
2024/01/25 08:45:31;;;;;;;37.10;13.17;;;;;6.60;102442.00;;;;9825115;29;20244;-78
2024/01/25 08:50:34;;;;;;;37.80;12.63;;;;;6.60;102438.00;;;;9836904;29;20735;-76
2024/01/25 08:55:36;;;;;;;31.40;13.00;;;;;6.60;102451.00;;;;9848755;29;20867;-77
2024/01/25 09:00:38;;;;;;;32.00;12.33;;;;;6.70;102453.00;;;;9833221;29;20235;-78
2024/01/25 09:05:44;;;;;;;44.90;15.73;;;;;6.80;102452.00;;;;9853113;29;20239;-79
2024/01/25 09:10:47;;;;;;;30.53;14.03;;;;;7.00;102451.00;;;;9820680;29;20324;-80
2024/01/25 09:15:48;;;;;;;36.03;13.67;;;;;7.10;102445.00;;;;9833100;29;20239;-80
2024/01/25 09:20:51;;;;;;;42.17;14.73;;;;;7.20;102436.00;;;;9836166;29;20227;-80
2024/01/25 09:25:53;;;;;;;38.53;12.43;;;;;7.30;102440.00;;;;9836578;29;20228;-79
2024/01/25 09:30:55;;;;;;;28.30;11.23;;;;;7.30;102452.00;;;;9846386;29;20307;-79
2024/01/25 09:35:57;;;;;;;35.00;14.40;;;;;7.30;102434.00;;;;9852324;29;20587;-79
2024/01/25 09:41:00;;;;;;;37.27;14.87;;;;;7.50;102434.00;;;;9848548;29;20234;-78
2024/01/25 09:46:05;;;;;;;33.30;14.07;;;;;7.60;102438.00;;;;9838012;29;20227;-78
2024/01/25 09:51:07;;;;;;;42.50;16.87;;;;;7.80;102439.00;;;;9836992;29;20259;-78
2024/01/25 09:56:12;;;;;;;43.23;16.30;;;;;7.90;102441.00;;;;9825791;29;20243;-78
2024/01/25 10:01:15;;;;;;;53.43;19.93;;;;;8.10;102432.00;;;;9838278;29;20532;-78
2024/01/25 10:06:18;;;;;;;63.80;20.50;;;;;8.40;102440.00;;;;9838518;29;20226;-78
2024/01/25 10:11:20;;;;;;;50.23;18.70;;;;;8.70;102433.00;;;;9824132;29;20229;-79
2024/01/25 10:16:22;;;;;;;49.73;20.27;;;;;8.90;102424.00;;;;9860098;29;20240;-78
2024/01/25 10:21:24;;;;;;;43.57;19.60;;;;;9.00;102426.00;;;;9830989;29;20243;-78
2024/01/25 10:26:28;;;;;;;60.63;22.47;;;;;9.10;102432.00;;;;9834923;29;20912;-78
2024/01/25 10:31:30;;;;;;;63.67;20.97;;;;;9.30;102415.00;;;;9827363;29;20228;-78
2024/01/25 10:36:35;;;;;;;53.53;20.53;;;;;9.30;102423.00;;;;9846258;29;20232;-79
2024/01/25 10:41:37;;;;;;;51.27;18.70;;;;;9.30;102415.00;;;;9825728;29;20258;-78
2024/01/25 10:46:41;;;;;;;47.00;17.17;;;;;9.50;102421.00;;;;9832401;29;20299;-78
2024/01/25 10:51:44;;;;;;;53.97;18.23;;;;;9.50;102414.00;;;;9830431;29;20239;-78
2024/01/25 10:56:47;;;;;;;45.67;16.83;;;;;9.50;102410.00;;;;9830771;29;20233;-78
2024/01/25 11:01:49;;;;;;;42.83;16.83;;;;;9.70;102390.00;;;;9833700;29;20230;-78
2024/01/25 11:06:51;;;;;;;52.83;16.40;;;;;9.70;102372.00;;;;9832081;29;20678;-78
2024/01/25 11:11:54;;;;;;;42.00;15.40;;;;;9.80;102356.00;;;;9845281;29;20806;-78
2024/01/25 11:16:56;;;;;;;39.47;14.90;;;;;9.80;102340.00;;;;9845719;29;20239;-78
2024/01/25 11:22:03;;;;;;;43.17;14.10;;;;;9.70;102346.00;;;;9830618;29;20228;-78
2024/01/25 11:27:06;;;;;;;36.13;14.73;;;;;9.80;102332.00;;;;9819369;29;20257;-78
2024/01/25 11:32:09;;;;;;;38.13;14.63;;;;;9.80;102325.00;;;;9835211;29;20235;-78
2024/01/25 11:37:11;;;;;;;35.27;13.67;;;;;9.80;102326.00;;;;9846503;29;20891;-78
2024/01/25 11:42:12;;;;;;;40.07;13.33;;;;;9.90;102310.00;;;;9825020;29;20232;-78
2024/01/25 11:47:14;;;;;;;44.60;14.33;;;;;10.00;102314.00;;;;9859956;29;20318;-78
2024/01/25 11:52:16;;;;;;;40.40;11.60;;;;;10.10;102296.00;;;;9849320;29;20839;-79
2024/01/25 11:57:19;;;;;;;41.83;11.63;;;;;10.30;102288.00;;;;9833756;29;20232;-80
2024/01/25 12:02:21;;;;;;;39.47;13.03;;;;;10.50;102288.00;;;;9828689;29;20315;-80
2024/01/25 12:07:23;;;;;;;42.07;10.90;;;;;10.40;102281.00;;;;9819708;29;20883;-80
2024/01/25 12:12:25;;;;;;;39.73;11.63;;;;;10.40;102271.00;;;;9837269;29;20232;-79
2024/01/25 12:17:28;;;;;;;47.77;20.40;;;;;10.40;102272.00;;;;9832305;29;20229;-80
2024/01/25 12:22:30;;;;;;;35.90;12.23;;;;;10.40;102269.00;;;;9814355;29;20950;-80
2024/01/25 12:27:40;;;;;;;38.70;11.87;;;;;10.40;102245.00;;;;9819108;29;20909;-77
2024/01/25 12:32:42;;;;;;;36.67;11.53;;;;;10.40;102236.00;;;;9847280;29;20244;-77
2024/01/25 12:37:44;;;;;;;37.03;12.17;;;;;10.30;102232.00;;;;9836214;29;20311;-78
2024/01/25 12:42:46;;;;;;;35.80;14.43;;;;;10.20;102232.00;;;;9842136;29;20247;-78
2024/01/25 12:47:48;;;;;;;42.17;14.73;;;;;10.20;102217.00;;;;9840977;29;20305;-79
2024/01/25 12:52:50;;;;;;;32.67;14.37;;;;;9.90;102213.00;;;;9853220;29;20226;-77
2024/01/25 12:57:53;;;;;;;30.37;14.10;;;;;9.80;102200.00;;;;9831498;29;20224;-78
2024/01/25 13:02:56;;;;;;;32.40;11.90;;;;;9.90;102183.00;;;;9822259;29;20224;-78
2024/01/25 13:08:02;;;;;;;24.07;10.73;;;;;9.90;102188.00;;;;9822523;29;20311;-79
2024/01/25 13:13:04;;;;;;;25.57;9.50;;;;;9.90;102186.00;;;;9850946;29;20232;-79
2024/01/25 13:18:07;;;;;;;18.67;7.10;;;;;10.20;102184.00;;;;9854655;29;20224;-78
2024/01/25 13:23:09;;;;;;;20.77;10.23;;;;;10.30;102162.00;;;;9834045;29;20236;-78
2024/01/25 13:28:11;;;;;;;18.70;7.77;;;;;10.30;102164.00;;;;9821663;29;20351;-78
2024/01/25 13:33:12;;;;;;;15.07;7.20;;;;;10.50;102142.00;;;;9841864;29;20232;-78
2024/01/25 13:38:16;;;;;;;14.43;6.73;;;;;10.50;102144.00;;;;9825879;29;20245;-79
2024/01/25 13:43:18;;;;;;;11.60;6.17;;;;;10.40;102148.00;;;;9818868;29;20228;-79
2024/01/25 13:48:20;;;;;;;15.33;6.00;;;;;10.20;102134.00;;;;9821338;29;20228;-80
2024/01/25 13:53:22;;;;;;;11.90;6.20;;;;;10.30;102122.00;;;;9823198;29;20228;-79
2024/01/25 13:58:23;;;;;;;12.27;6.30;;;;;10.30;102125.00;;;;9835631;29;20620;-78
2024/01/25 14:03:25;;;;;;;15.27;6.63;;;;;10.30;102111.00;;;;9853634;29;20248;-78
2024/01/25 14:08:27;;;;;;;13.00;7.90;;;;;10.40;102106.00;;;;9834237;29;20596;-78
2024/01/25 14:13:29;;;;;;;12.07;7.97;;;;;10.40;102099.00;;;;9852359;29;20253;-79
2024/01/25 14:18:37;;;;;;;15.27;9.60;;;;;10.40;102099.00;;;;9847535;29;20268;-80
2024/01/25 14:23:39;;;;;;;13.13;10.03;;;;;10.40;102095.00;;;;9838381;29;20235;-80
2024/01/25 14:28:41;;;;;;;15.40;11.13;;;;;10.40;102099.00;;;;9820488;29;20228;-79
2024/01/25 14:33:43;;;;;;;20.87;13.10;;;;;10.30;102098.00;;;;9822975;29;20264;-79
2024/01/25 14:38:47;;;;;;;19.07;13.43;;;;;10.40;102099.00;;;;9822545;29;20691;-80
2024/01/25 14:43:49;;;;;;;21.10;13.13;;;;;10.50;102089.00;;;;9828705;29;20759;-84
2024/01/25 14:48:51;;;;;;;23.27;16.77;;;;;10.50;102095.00;;;;9833845;29;20231;-84
2024/01/25 14:53:53;;;;;;;18.57;12.63;;;;;10.50;102103.00;;;;9823804;29;21881;-85
2024/01/25 14:58:55;;;;;;;20.63;13.40;;;;;10.50;102099.00;;;;9821382;29;20411;-83
2024/01/25 15:03:57;;;;;;;21.77;13.57;;;;;10.40;102110.00;;;;9853392;29;20230;-83
2024/01/25 15:08:59;;;;;;;16.87;11.37;;;;;10.30;102097.00;;;;9848190;29;20902;-84
2024/01/25 15:14:01;;;;;;;21.23;14.00;;;;;10.30;102105.00;;;;9815693;29;20589;-84
2024/01/25 15:19:03;;;;;;;19.13;13.50;;;;;10.20;102101.00;;;;9819193;29;20235;-83
2024/01/25 15:24:05;;;;;;;19.17;12.87;;;;;10.20;102097.00;;;;9834713;29;21018;-83
2024/01/25 15:29:07;;;;;;;16.73;13.03;;;;;10.20;102092.00;;;;9828499;29;20318;-83
2024/01/25 15:34:09;;;;;;;21.90;13.67;;;;;10.20;102093.00;;;;9851468;29;20311;-83
2024/01/25 15:39:11;;;;;;;18.80;13.07;;;;;10.20;102083.00;;;;9815487;29;20239;-83
2024/01/25 15:44:13;;;;;;;23.27;13.57;;;;;10.20;102081.00;;;;9852640;29;20228;-84
2024/01/25 15:49:15;;;;;;;19.37;12.40;;;;;10.20;102066.00;;;;9819772;29;20286;-83
2024/01/25 15:54:17;;;;;;;15.20;10.70;;;;;10.20;102068.00;;;;9832618;29;20239;-80
2024/01/25 15:59:19;;;;;;;18.80;10.30;;;;;10.20;102076.00;;;;9834392;29;20950;-80
2024/01/25 16:04:21;;;;;;;19.37;11.40;;;;;10.20;102078.00;;;;9830000;29;20227;-79
2024/01/25 16:09:23;;;;;;;15.60;10.80;;;;;10.10;102075.00;;;;9850892;29;20228;-79
2024/01/25 16:14:25;;;;;;;15.37;10.37;;;;;10.10;102071.00;;;;9857275;29;20281;-79
2024/01/25 16:19:27;;;;;;;15.53;9.77;;;;;10.10;102077.00;;;;9824276;29;20719;-79
2024/01/25 16:24:29;;;;;;;14.93;11.10;;;;;10.20;102074.00;;;;9837402;29;20856;-79
2024/01/25 16:29:31;;;;;;;17.93;11.50;;;;;10.10;102078.00;;;;9833464;29;20730;-79
2024/01/25 16:34:33;;;;;;;18.73;11.90;;;;;10.10;102069.00;;;;9826785;29;20237;-79
2024/01/25 16:39:35;;;;;;;21.20;13.00;;;;;10.10;102068.00;;;;9840602;29;20289;-79
2024/01/25 16:44:37;;;;;;;24.57;14.27;;;;;10.10;102062.00;;;;9860336;29;20243;-78
2024/01/25 16:49:39;;;;;;;22.50;12.87;;;;;10.10;102046.00;;;;9834918;29;20311;-79
2024/01/25 16:54:42;;;;;;;21.50;12.67;;;;;10.10;102044.00;;;;9851391;29;20236;-79
2024/01/25 16:59:43;;;;;;;26.73;13.00;;;;;10.00;102047.00;;;;9851790;29;20235;-79
2024/01/25 17:04:46;;;;;;;21.63;13.10;;;;;9.90;102053.00;;;;9826972;29;20309;-85
2024/01/25 17:09:48;;;;;;;20.57;13.53;;;;;9.80;102035.00;;;;9826396;29;20272;-85
2024/01/25 17:14:50;;;;;;;23.23;14.87;;;;;9.80;102026.00;;;;9845348;29;20728;-85
2024/01/25 17:19:52;;;;;;;23.50;15.80;;;;;9.70;102046.00;;;;9867242;29;20244;-84
2024/01/25 17:24:54;;;;;;;24.13;15.87;;;;;9.70;102033.00;;;;9833526;29;20236;-85
2024/01/25 17:29:56;;;;;;;21.27;14.70;;;;;9.70;102028.00;;;;9861341;29;20231;-84
2024/01/25 17:34:58;;;;;;;28.57;16.73;;;;;9.70;102032.00;;;;9835920;29;20311;-85
2024/01/25 17:40:01;;;;;;;27.03;17.43;;;;;9.70;102029.00;;;;9843311;29;20233;-86
2024/01/25 17:45:04;;;;;;;27.83;18.60;;;;;9.70;102028.00;;;;9830935;29;20239;-86
2024/01/25 17:50:06;;;;;;;36.70;21.10;;;;;9.70;102036.00;;;;9853086;29;20231;-86
2024/01/25 17:55:08;;;;;;;39.80;21.53;;;;;9.80;102036.00;;;;9848050;29;20224;-87
2024/01/25 18:00:11;;;;;;;37.07;21.57;;;;;9.80;102031.00;;;;9847999;29;20229;-86
2024/01/25 18:05:12;;;;;;;37.10;21.80;;;;;9.90;102021.00;;;;9869187;29;20232;-86
2024/01/25 18:16:20;;;;;;;33.70;20.97;;;;;9.90;102020.00;;;;10425392;24;20276;-86
2024/01/25 18:21:24;;;;;;;47.33;31.03;;;;;9.90;102016.00;;;;9877764;29;20227;-88
2024/01/25 18:26:27;;;;;;;37.43;25.47;;;;;9.90;102020.00;;;;9868048;29;20589;-85
2024/01/25 18:31:29;;;;;;;35.33;23.53;;;;;9.90;102013.00;;;;9862719;29;20260;-86
2024/01/25 18:36:31;;;;;;;35.77;19.87;;;;;10.00;102009.00;;;;9888231;29;20215;-87
2024/01/25 18:41:33;;;;;;;39.87;25.17;;;;;10.00;102007.00;;;;10254928;24;20229;-85
2024/01/25 18:46:52;;;;;;;31.37;19.67;;;;;10.00;102008.00;;;;11340980;24;20224;31
2024/01/25 19:10:44;;;;;;;24.43;15.50;;;;;10.10;101999.00;;;;11589658;24;20634;31
2024/01/25 19:28:06;;;;;;;26.30;18.63;;;;;10.10;101981.00;;;;9686414;30;20223;-79
2024/01/25 19:33:08;;;;;;;23.60;16.97;;;;;10.10;101968.00;;;;9725756;30;20241;-80
2024/01/25 19:38:10;;;;;;;21.23;14.40;;;;;10.10;101961.00;;;;9741072;30;20693;-80
2024/01/25 19:43:12;;;;;;;21.53;13.17;;;;;10.10;101955.00;;;;9733219;30;20285;-79
2024/01/25 19:48:14;;;;;;;16.93;10.27;;;;;10.10;101952.00;;;;9752115;30;20396;-80
2024/01/25 19:53:16;;;;;;;14.63;10.23;;;;;10.10;101960.00;;;;9755451;30;20234;-80
2024/01/25 19:58:20;;;;;;;18.00;10.23;;;;;10.20;101951.00;;;;9746050;30;20324;-80
2024/01/25 20:03:23;;;;;;;13.13;9.97;;;;;10.20;101954.00;;;;9752336;30;20234;-79
2024/01/25 20:08:26;;;;;;;26.53;20.77;;;;;10.20;101955.00;;;;9734877;30;20244;-79
2024/01/25 20:13:29;;;;;;;23.90;18.73;;;;;10.20;101956.00;;;;9720784;30;20325;-79
2024/01/25 20:18:34;;;;;;;29.03;14.30;;;;;10.30;101949.00;;;;9748418;30;20622;-78
2024/01/25 20:23:38;;;;;;;24.23;16.00;;;;;10.30;101941.00;;;;9748049;30;20231;-81
2024/01/25 20:28:41;;;;;;;22.50;14.53;;;;;10.40;101932.00;;;;9749613;30;20920;-79
2024/01/25 20:33:44;;;;;;;21.93;13.60;;;;;10.50;101930.00;;;;9743111;30;20229;-85
2024/01/25 20:38:46;;;;;;;19.07;11.27;;;;;10.60;101933.00;;;;9994502;25;20224;-86
2024/01/25 20:43:48;;;;;;;14.57;10.60;;;;;10.60;101938.00;;;;9864294;29;20235;-86
2024/01/25 20:48:52;;;;;;;14.50;10.07;;;;;10.60;101927.00;;;;10025319;24;20238;-84
2024/01/25 20:53:54;;;;;;;14.77;9.93;;;;;10.60;101918.00;;;;9857040;30;20243;-85
2024/01/25 20:59:06;;;;;;;16.57;10.57;;;;;10.60;101925.00;;;;9952238;24;20448;-85
2024/01/25 21:04:08;;;;;;;15.17;10.13;;;;;10.60;101931.00;;;;10297735;24;20241;-87
2024/01/25 21:09:18;;;;;;;15.85;9.90;;;;;10.60;101924.00;;;;10356073;24;20212;31
2024/01/25 21:14:21;;;;;;;16.10;9.30;;;;;10.60;101917.00;;;;9783915;30;20220;-85
2024/01/25 21:19:23;;;;;;;14.70;9.13;;;;;10.60;101905.00;;;;9791648;30;20293;-83
2024/01/25 21:31:13;;;;;;;14.67;10.00;;;;;10.70;101894.00;;;;3115479;24;20224;-82
2024/01/25 21:42:45;;;;;;;10.90;8.10;;;;;10.70;101885.00;;;;11918706;24;21237;31
2024/01/25 21:47:47;;;;;;;11.20;8.67;;;;;10.60;101906.00;;;;9787559;30;20252;-83
2024/01/25 21:52:49;;;;;;;9.40;8.40;;;;;10.70;101903.00;;;;9803978;30;20237;-83
2024/01/25 21:57:51;;;;;;;11.17;8.33;;;;;10.60;101888.00;;;;9807590;30;20233;-83
2024/01/25 22:02:57;;;;;;;14.87;7.90;;;;;10.60;101896.00;;;;9800278;30;20263;-83
2024/01/25 22:07:59;;;;;;;13.10;7.77;;;;;10.60;101897.00;;;;9796442;30;20240;-83
2024/01/25 22:13:01;;;;;;;14.90;9.27;;;;;10.60;101876.00;;;;9801851;29;20233;-83
2024/01/25 22:18:04;;;;;;;12.37;8.93;;;;;10.60;101886.00;;;;9803527;30;20386;-83
2024/01/25 22:23:06;;;;;;;13.90;8.63;;;;;10.60;101894.00;;;;9804766;30;20233;-83
2024/01/25 22:28:07;;;;;;;13.13;8.43;;;;;10.60;101889.00;;;;9773613;30;20249;-84
2024/01/25 22:33:09;;;;;;;11.37;8.30;;;;;10.50;101897.00;;;;9811248;30;20703;-83
2024/01/25 22:38:11;;;;;;;10.73;9.13;;;;;10.50;101893.00;;;;9789918;30;20561;-83
2024/01/25 22:43:13;;;;;;;13.50;9.37;;;;;10.50;101898.00;;;;9791862;30;20238;-84
2024/01/25 22:48:16;;;;;;;10.70;9.13;;;;;10.50;101890.00;;;;9819087;29;20290;-83
2024/01/25 22:53:19;;;;;;;9.23;8.10;;;;;10.50;101884.00;;;;9819848;29;20321;-86
2024/01/25 23:05:04;;;;;;;13.07;8.37;;;;;10.60;101888.00;;;;12028544;24;20452;31
2024/01/25 23:10:06;;;;;;;9.60;8.53;;;;;10.60;101902.00;;;;10990642;24;20256;-84
2024/01/25 23:27:49;;;;;;;9.20;7.00;;;;;10.60;101898.00;;;;11182340;24;20234;-83
2024/01/25 23:33:38;;;;;;;7.30;5.83;;;;;10.60;101905.00;;;;11842997;24;21666;31
2024/01/25 23:38:44;;;;;;;5.90;5.33;;;;;10.60;101888.00;;;;10865576;24;20232;-85
2024/01/25 23:44:07;;;;;;;7.63;5.70;;;;;10.60;101870.00;;;;11529319;24;20250;31
2024/01/25 23:54:56;;;;;;;7.67;5.40;;;;;10.60;101856.00;;;;10544270;24;20210;-86
2024/01/25 23:59:59;;;;;;;5.73;4.77;;;;;10.60;101854.00;;;;10341317;24;21270;-82
